createdAt,value
2023-05-16T00:00:01.549Z,2.80
2023-05-16T00:02:30.972Z,2.80
2023-05-16T00:05:00.877Z,3.13
2023-05-16T00:07:29.559Z,2.93
2023-05-16T00:09:58.071Z,2.90
2023-05-16T00:12:26.568Z,3.23
2023-05-16T00:14:55.678Z,2.70
2023-05-16T00:17:24.181Z,3.10
2023-05-16T00:19:58.772Z,2.90
2023-05-16T00:22:28.778Z,3.30
2023-05-16T00:24:57.260Z,3.10
2023-05-16T00:27:25.768Z,3.10
2023-05-16T00:29:54.416Z,3.10
2023-05-16T00:32:23.181Z,3.20
2023-05-16T00:34:51.731Z,3.07
2023-05-16T00:37:20.351Z,2.90
2023-05-16T00:39:50.264Z,3.00
2023-05-16T00:42:20.867Z,2.83
2023-05-16T00:44:49.491Z,2.80
2023-05-16T00:47:17.946Z,3.20
2023-05-16T00:49:46.477Z,2.97
2023-05-16T00:52:15.065Z,3.20
2023-05-16T00:54:43.542Z,3.33
2023-05-16T00:57:13.611Z,3.27
2023-05-16T00:59:44.006Z,3.13
2023-05-16T01:02:13.139Z,2.90
2023-05-16T01:04:41.885Z,3.00
2023-05-16T01:07:10.541Z,3.10
2023-05-16T01:09:39.042Z,2.80
2023-05-16T01:12:12.810Z,3.07
2023-05-16T01:14:47.666Z,2.80
2023-05-16T01:17:20.707Z,3.10
2023-05-16T01:20:03.543Z,3.00
2023-05-16T01:22:38.687Z,3.07
2023-05-16T01:25:08.470Z,3.10
2023-05-16T01:27:40.927Z,3.13
2023-05-16T01:30:27.006Z,3.10
2023-05-16T01:32:55.574Z,2.87
2023-05-16T01:35:24.250Z,2.90
2023-05-16T01:37:57.927Z,2.83
2023-05-16T01:40:31.656Z,2.87
2023-05-16T01:43:02.162Z,2.70
2023-05-16T01:45:33.849Z,3.17
2023-05-16T01:48:06.147Z,3.10
2023-05-16T01:50:36.297Z,2.80
2023-05-16T01:53:09.177Z,2.90
2023-05-16T01:55:41.403Z,2.90
2023-05-16T01:58:12.647Z,3.03
2023-05-16T02:00:41.807Z,3.00
2023-05-16T02:03:10.891Z,3.00
2023-05-16T02:05:39.383Z,2.47
2023-05-16T02:08:09.005Z,2.90
2023-05-16T02:10:37.621Z,3.10
2023-05-16T02:13:06.228Z,3.13
2023-05-16T02:15:36.094Z,3.00
2023-05-16T02:18:07.940Z,3.03
2023-05-16T02:20:36.399Z,2.80
2023-05-16T02:23:04.912Z,2.87
2023-05-16T02:25:33.477Z,3.20
2023-05-16T02:28:01.933Z,3.20
2023-05-16T02:30:30.412Z,3.33
2023-05-16T02:33:00.461Z,2.90
2023-05-16T02:35:29.148Z,3.60
2023-05-16T02:37:58.169Z,3.17
2023-05-16T02:40:26.740Z,3.17
2023-05-16T02:42:55.235Z,3.10
2023-05-16T02:45:23.767Z,3.50
2023-05-16T02:47:52.442Z,3.17
2023-05-16T02:50:22.494Z,3.60
2023-05-16T02:52:50.989Z,2.97
2023-05-16T02:55:22.269Z,3.40
2023-05-16T02:57:51.911Z,3.13
2023-05-16T03:00:20.718Z,3.23
2023-05-16T03:02:49.492Z,3.30
2023-05-16T03:05:18.517Z,3.50
2023-05-16T03:07:48.475Z,3.20
2023-05-16T03:10:16.941Z,3.60
2023-05-16T03:12:46.168Z,3.10
2023-05-16T03:15:14.831Z,3.80
2023-05-16T03:17:43.359Z,3.63
2023-05-16T03:20:12.853Z,3.50
2023-05-16T03:22:41.610Z,3.70
2023-05-16T03:25:11.822Z,3.87
2023-05-16T03:27:40.274Z,4.27
2023-05-16T03:30:09.556Z,4.23
2023-05-16T03:32:38.088Z,4.10
2023-05-16T03:35:07.394Z,4.20
2023-05-16T03:37:36.028Z,4.30
2023-05-16T03:40:05.702Z,3.63
2023-05-16T03:42:35.724Z,3.50
2023-05-16T03:45:04.464Z,3.50
2023-05-16T03:47:32.930Z,3.20
2023-05-16T03:50:01.451Z,3.63
2023-05-16T03:52:31.068Z,3.50
2023-05-16T03:55:01.992Z,3.83
2023-05-16T03:57:31.968Z,4.00
2023-05-16T04:00:01.972Z,3.80
2023-05-16T04:02:30.655Z,3.90
2023-05-16T04:04:59.272Z,4.63
2023-05-16T04:07:28.390Z,4.90
2023-05-16T04:09:58.808Z,5.20
2023-05-16T04:12:27.315Z,5.00
2023-05-16T04:14:55.879Z,4.60
2023-05-16T04:17:25.927Z,5.00
2023-05-16T04:19:54.506Z,5.27
2023-05-16T04:22:23.247Z,5.00
2023-05-16T04:24:51.871Z,5.20
2023-05-16T04:27:20.332Z,4.97
2023-05-16T04:29:48.952Z,5.50
2023-05-16T04:32:17.664Z,4.87
2023-05-16T04:34:48.559Z,4.80
2023-05-16T04:37:17.301Z,4.87
2023-05-16T04:39:45.811Z,4.80
2023-05-16T04:42:14.313Z,4.90
2023-05-16T04:44:44.128Z,4.80
2023-05-16T04:47:13.087Z,4.67
2023-05-16T04:49:41.538Z,4.77
2023-05-16T04:52:11.645Z,4.47
2023-05-16T04:54:40.385Z,5.10
2023-05-16T04:57:08.870Z,4.73
2023-05-16T04:59:38.596Z,4.30
2023-05-16T05:02:07.838Z,4.27
2023-05-16T05:04:36.796Z,4.50
2023-05-16T05:07:05.432Z,4.70
2023-05-16T05:09:35.262Z,4.23
2023-05-16T05:12:03.751Z,4.67
2023-05-16T05:14:32.301Z,4.13
2023-05-16T05:17:00.809Z,4.40
2023-05-16T05:19:29.368Z,4.80
2023-05-16T05:21:58.036Z,4.50
2023-05-16T05:24:26.592Z,4.37
2023-05-16T05:26:56.492Z,4.30
2023-05-16T05:29:25.103Z,4.27
2023-05-16T05:31:53.589Z,4.20
2023-05-16T05:34:22.121Z,3.80
2023-05-16T05:36:50.746Z,4.03
2023-05-16T05:39:19.207Z,3.80
2023-05-16T05:41:47.828Z,3.50
2023-05-16T05:44:17.764Z,3.40
2023-05-16T05:46:46.476Z,3.40
2023-05-16T05:49:15.058Z,3.40
2023-05-16T05:51:43.652Z,3.83
2023-05-16T05:54:12.226Z,3.50
2023-05-16T05:56:40.701Z,3.50
2023-05-16T05:59:09.196Z,4.10
2023-05-16T06:01:39.665Z,3.93
2023-05-16T06:04:08.359Z,3.57
2023-05-16T06:06:36.879Z,4.00
2023-05-16T06:09:05.776Z,4.17
2023-05-16T06:11:34.292Z,4.13
2023-05-16T06:14:03.049Z,4.43
2023-05-16T06:16:31.822Z,3.90
2023-05-16T06:19:01.967Z,4.10
2023-05-16T06:21:30.683Z,4.03
2023-05-16T06:23:59.279Z,4.00
2023-05-16T06:26:28.161Z,3.83
2023-05-16T06:28:56.612Z,4.33
2023-05-16T06:31:25.235Z,4.37
2023-05-16T06:33:53.753Z,4.07
2023-05-16T06:36:23.602Z,4.13
2023-05-16T06:38:52.179Z,3.77
2023-05-16T06:41:21.573Z,3.90
2023-05-16T06:43:50.075Z,3.80
2023-05-16T06:46:18.633Z,3.90
2023-05-16T06:48:47.260Z,4.23
2023-05-16T06:51:16.220Z,5.43
2023-05-16T06:53:46.388Z,5.50
2023-05-16T06:56:14.996Z,5.60
2023-05-16T06:58:43.683Z,5.60
2023-05-16T07:01:12.300Z,5.90
2023-05-16T07:03:41.088Z,6.27
2023-05-16T07:06:09.792Z,5.80
2023-05-16T07:08:39.696Z,6.40
2023-05-16T07:11:11.614Z,6.70
2023-05-16T07:13:40.253Z,6.67
2023-05-16T07:16:08.955Z,6.70
2023-05-16T07:18:37.746Z,6.70
2023-05-16T07:21:06.491Z,7.00
2023-05-16T07:23:34.999Z,5.70
2023-05-16T07:26:03.645Z,5.77
2023-05-16T07:28:33.913Z,5.23
2023-05-16T07:31:02.443Z,4.43
2023-05-16T07:33:30.953Z,4.87
2023-05-16T07:36:12.068Z,5.40
2023-05-16T07:38:43.737Z,4.47
2023-05-16T07:41:12.335Z,5.00
2023-05-16T07:43:42.336Z,6.40
2023-05-16T07:46:11.002Z,6.00
2023-05-16T07:48:39.817Z,5.37
2023-05-16T07:51:08.579Z,5.40
2023-05-16T07:53:37.095Z,5.60
2023-05-16T07:56:06.866Z,4.80
2023-05-16T07:58:35.566Z,4.83
2023-05-16T08:01:06.659Z,4.70
2023-05-16T08:03:35.574Z,4.67
2023-05-16T08:06:07.334Z,4.80
2023-05-16T08:08:36.000Z,3.93
2023-05-16T08:11:05.792Z,3.93
2023-05-16T08:13:34.343Z,4.27
2023-05-16T08:16:03.080Z,4.13
2023-05-16T08:18:33.331Z,4.57
2023-05-16T08:21:01.945Z,4.23
2023-05-16T08:23:30.695Z,4.60
2023-05-16T08:25:59.851Z,4.37
2023-05-16T08:28:28.347Z,4.30
2023-05-16T08:30:57.383Z,4.33
2023-05-16T08:33:25.885Z,4.27
2023-05-16T08:35:55.846Z,4.13
2023-05-16T08:38:24.469Z,3.70
2023-05-16T08:40:52.981Z,4.10
2023-05-16T08:43:21.799Z,3.70
2023-05-16T08:45:50.535Z,3.90
2023-05-16T08:48:20.558Z,3.70
2023-05-16T08:50:49.115Z,4.30
2023-05-16T08:53:22.380Z,3.80
2023-05-16T08:55:51.541Z,3.80
2023-05-16T08:58:20.818Z,3.87
2023-05-16T09:00:49.974Z,4.07
2023-05-16T09:03:21.078Z,4.07
2023-05-16T09:05:50.177Z,3.53
2023-05-16T09:08:20.453Z,3.70
2023-05-16T09:10:48.971Z,3.80
2023-05-16T09:13:17.602Z,3.60
2023-05-16T09:15:46.708Z,3.50
2023-05-16T09:18:17.470Z,3.30
2023-05-16T09:20:47.900Z,3.80
2023-05-16T09:23:16.535Z,3.63
2023-05-16T09:25:47.404Z,4.00
2023-05-16T09:28:16.011Z,4.13
2023-05-16T09:30:49.182Z,4.10
2023-05-16T09:33:18.237Z,4.00
2023-05-16T09:35:46.965Z,4.10
2023-05-16T09:38:16.897Z,4.53
2023-05-16T09:40:47.649Z,4.40
2023-05-16T09:43:18.024Z,4.47
2023-05-16T09:45:50.878Z,4.43
2023-05-16T09:48:19.835Z,4.33
2023-05-16T09:50:51.258Z,4.27
2023-05-16T09:53:19.847Z,4.47
2023-05-16T09:55:49.850Z,4.60
2023-05-16T09:58:19.722Z,4.27
2023-05-16T10:00:48.399Z,4.20
2023-05-16T10:03:17.661Z,4.13
2023-05-16T10:05:46.443Z,4.37
2023-05-16T10:08:15.747Z,4.40
2023-05-16T10:10:44.850Z,4.13
2023-05-16T10:13:15.279Z,3.90
2023-05-16T10:15:43.879Z,3.90
2023-05-16T10:18:13.653Z,3.83
2023-05-16T10:20:43.566Z,3.50
2023-05-16T10:23:13.836Z,4.10
2023-05-16T10:25:44.545Z,4.90
2023-05-16T10:28:13.431Z,5.03
2023-05-16T10:30:44.774Z,4.60
2023-05-16T10:33:14.575Z,4.80
2023-05-16T10:35:43.590Z,4.30
2023-05-16T10:38:13.062Z,4.93
2023-05-16T10:40:41.988Z,5.07
2023-05-16T10:43:11.625Z,4.87
2023-05-16T10:45:43.076Z,4.30
2023-05-16T10:48:15.492Z,4.17
2023-05-16T10:50:44.760Z,3.77
2023-05-16T10:53:14.721Z,3.60
2023-05-16T10:55:46.716Z,3.10
2023-05-16T10:58:20.340Z,2.80
2023-05-16T11:00:52.029Z,3.27
2023-05-16T11:03:28.583Z,2.83
2023-05-16T11:06:01.860Z,2.80
2023-05-16T11:08:30.370Z,3.10
2023-05-16T11:11:13.733Z,2.77
2023-05-16T11:13:55.802Z,2.80
2023-05-16T11:16:30.536Z,2.50
2023-05-16T11:19:06.648Z,2.60
2023-05-16T11:21:54.995Z,2.40
2023-05-16T11:24:30.101Z,2.70
2023-05-16T11:26:59.677Z,2.60
2023-05-16T11:29:28.834Z,2.37
2023-05-16T11:31:57.495Z,2.50
2023-05-16T11:34:27.462Z,2.40
2023-05-16T11:36:56.348Z,2.20
2023-05-16T11:39:25.954Z,2.43
2023-05-16T11:41:55.498Z,2.30
2023-05-16T11:44:24.137Z,2.27
2023-05-16T11:46:52.743Z,2.10
2023-05-16T11:49:21.436Z,2.30
2023-05-16T11:51:52.544Z,2.27
2023-05-16T11:54:21.045Z,2.33
2023-05-16T11:56:49.592Z,2.30
2023-05-16T11:59:18.962Z,2.10
2023-05-16T12:01:49.181Z,2.37
2023-05-16T12:04:18.455Z,2.30
2023-05-16T12:06:48.514Z,2.30
2023-05-16T12:09:18.687Z,2.30
2023-05-16T12:11:47.254Z,2.03
2023-05-16T12:14:16.105Z,2.37
2023-05-16T12:16:46.689Z,2.60
2023-05-16T12:19:15.291Z,2.30
2023-05-16T12:21:44.172Z,2.30
2023-05-16T12:24:13.705Z,2.40
2023-05-16T12:26:44.693Z,2.40
2023-05-16T12:29:13.549Z,1.97
2023-05-16T12:31:43.097Z,2.23
2023-05-16T12:34:18.344Z,2.00
2023-05-16T12:36:47.043Z,1.80
2023-05-16T12:39:16.205Z,2.10
2023-05-16T12:41:46.113Z,2.40
2023-05-16T12:44:17.154Z,1.77
2023-05-16T12:46:46.836Z,2.20
2023-05-16T12:49:15.652Z,2.07
2023-05-16T12:51:50.325Z,2.20
2023-05-16T12:54:19.007Z,2.17
2023-05-16T12:56:49.007Z,2.10
2023-05-16T12:59:19.147Z,2.27
2023-05-16T13:01:47.687Z,2.03
2023-05-16T13:04:19.398Z,2.00
2023-05-16T13:06:59.153Z,2.20
2023-05-16T13:09:32.501Z,2.23
2023-05-16T13:12:03.115Z,1.83
2023-05-16T13:14:31.742Z,2.20
2023-05-16T13:17:00.738Z,1.80
2023-05-16T13:19:31.814Z,2.20
2023-05-16T13:22:00.593Z,2.00
2023-05-16T13:24:29.203Z,1.87
2023-05-16T13:26:58.155Z,1.73
2023-05-16T13:29:28.217Z,2.20
2023-05-16T13:31:56.853Z,1.70
2023-05-16T13:34:25.584Z,1.40
2023-05-16T13:36:54.925Z,1.60
2023-05-16T13:39:24.075Z,1.60
2023-05-16T13:41:52.770Z,1.63
2023-05-16T13:44:22.576Z,1.57
2023-05-16T13:46:52.628Z,1.67
2023-05-16T13:49:21.134Z,1.60
2023-05-16T13:51:49.776Z,2.03
2023-05-16T13:54:18.317Z,1.90
2023-05-16T13:56:46.854Z,1.50
2023-05-16T13:59:27.289Z,1.80
2023-05-16T14:02:07.168Z,2.00
2023-05-16T14:04:35.961Z,1.90
2023-05-16T14:07:04.614Z,1.80
2023-05-16T14:09:35.306Z,1.90
2023-05-16T14:12:04.232Z,1.80
2023-05-16T14:14:33.084Z,1.90
2023-05-16T14:17:01.603Z,2.00
2023-05-16T14:19:31.801Z,2.00
2023-05-16T14:22:00.447Z,1.90
2023-05-16T14:24:28.948Z,2.17
2023-05-16T14:26:57.571Z,1.93
2023-05-16T14:29:26.537Z,1.97
2023-05-16T14:31:55.255Z,2.00
2023-05-16T14:34:24.886Z,2.20
2023-05-16T14:36:55.096Z,2.30
2023-05-16T14:39:23.708Z,2.40
2023-05-16T14:41:52.318Z,2.57
2023-05-16T14:44:21.792Z,2.20
2023-05-16T14:46:50.457Z,2.20
2023-05-16T14:49:19.221Z,2.10
2023-05-16T14:51:49.433Z,2.30
2023-05-16T14:54:19.329Z,2.20
2023-05-16T14:56:47.973Z,2.17
2023-05-16T14:59:16.686Z,2.53
2023-05-16T15:01:45.352Z,2.70
2023-05-16T15:04:14.127Z,2.57
2023-05-16T15:06:42.784Z,2.63
2023-05-16T15:09:11.642Z,2.60
2023-05-16T15:11:41.654Z,2.90
2023-05-16T15:14:10.267Z,2.80
2023-05-16T15:16:39.062Z,2.93
2023-05-16T15:19:07.697Z,3.10
2023-05-16T15:21:36.319Z,3.23
2023-05-16T15:24:05.127Z,2.87
2023-05-16T15:26:33.803Z,2.90
2023-05-16T15:29:04.060Z,3.23
2023-05-16T15:31:32.663Z,3.10
2023-05-16T15:34:01.362Z,2.87
2023-05-16T15:36:30.139Z,2.93
2023-05-16T15:38:58.636Z,3.07
2023-05-16T15:44:00.518Z,3.17
2023-05-16T15:46:33.125Z,3.13
2023-05-16T15:49:01.976Z,2.90
2023-05-16T15:51:30.911Z,2.90
2023-05-16T15:53:59.512Z,3.53
2023-05-16T15:56:28.105Z,3.17
2023-05-16T15:58:57.517Z,3.10
2023-05-16T16:01:26.086Z,3.57
2023-05-16T16:03:56.148Z,2.97
2023-05-16T16:06:24.719Z,3.00
2023-05-16T16:08:53.317Z,3.30
2023-05-16T16:11:23.249Z,3.37
2023-05-16T16:13:51.759Z,3.23
2023-05-16T16:16:20.321Z,3.30
2023-05-16T16:18:49.715Z,2.83
2023-05-16T16:21:19.629Z,2.90
2023-05-16T16:23:48.158Z,2.80
2023-05-16T16:26:17.432Z,2.77
2023-05-16T16:28:46.099Z,3.10
2023-05-16T16:31:14.666Z,3.03
2023-05-16T16:33:43.297Z,2.80
2023-05-16T16:36:11.934Z,3.13
2023-05-16T16:38:41.853Z,2.90
2023-05-16T16:41:10.630Z,2.90
2023-05-16T16:43:40.512Z,2.90
2023-05-16T16:46:09.276Z,2.70
2023-05-16T16:48:38.470Z,2.70
2023-05-16T16:51:07.302Z,2.63
2023-05-16T16:53:37.888Z,2.73
2023-05-16T16:56:08.382Z,2.70
2023-05-16T16:58:36.953Z,2.83
2023-05-16T17:01:05.619Z,2.50
2023-05-16T17:03:34.346Z,2.60
2023-05-16T17:06:02.988Z,2.70
2023-05-16T17:08:31.565Z,2.20
2023-05-16T17:11:05.077Z,2.97
2023-05-16T17:13:37.798Z,3.17
2023-05-16T17:16:06.878Z,2.80
2023-05-16T17:18:36.905Z,2.60
2023-05-16T17:21:05.553Z,2.60
2023-05-16T17:23:34.140Z,2.50
2023-05-16T17:26:02.655Z,2.70
2023-05-16T17:28:31.521Z,2.77
2023-05-16T17:31:04.074Z,3.10
2023-05-16T17:33:32.976Z,3.00
2023-05-16T17:36:01.610Z,2.80
2023-05-16T17:38:30.492Z,2.97
2023-05-16T17:40:58.986Z,2.57
2023-05-16T17:43:27.716Z,3.00
2023-05-16T17:45:56.208Z,2.80
2023-05-16T17:48:26.111Z,2.83
2023-05-16T17:50:54.789Z,3.10
2023-05-16T17:53:23.909Z,2.60
2023-05-16T17:55:52.562Z,2.90
2023-05-16T17:58:21.246Z,2.63
2023-05-16T18:00:49.788Z,2.80
2023-05-16T18:03:18.399Z,3.10
2023-05-16T18:05:49.826Z,2.77
2023-05-16T18:08:18.364Z,3.10
2023-05-16T18:10:51.993Z,3.20
2023-05-16T18:13:22.150Z,3.07
2023-05-16T18:15:50.888Z,3.63
2023-05-16T18:18:19.763Z,3.40
2023-05-16T18:20:50.962Z,3.20
2023-05-16T18:23:19.458Z,3.40
2023-05-16T18:25:47.979Z,3.03
2023-05-16T18:28:16.737Z,2.07
2023-05-16T18:30:45.494Z,2.23
2023-05-16T18:33:15.247Z,2.30
2023-05-16T18:35:43.889Z,1.77
2023-05-16T18:38:28.310Z,1.87
2023-05-16T18:41:00.462Z,2.10
2023-05-16T18:43:29.092Z,2.07
2023-05-16T18:45:57.837Z,2.03
2023-05-16T18:48:26.474Z,2.30
2023-05-16T18:50:55.043Z,2.27
2023-05-16T18:53:25.157Z,2.30
2023-05-16T18:55:53.878Z,2.50
2023-05-16T18:58:22.401Z,2.00
2023-05-16T19:00:50.903Z,2.17
2023-05-16T19:03:19.800Z,2.00
2023-05-16T19:05:48.819Z,2.40
2023-05-16T19:08:17.403Z,2.57
2023-05-16T19:10:47.343Z,2.40
2023-05-16T19:13:15.855Z,2.80
2023-05-16T19:15:44.381Z,2.47
2023-05-16T19:18:13.248Z,2.70
2023-05-16T19:20:44.346Z,2.50
2023-05-16T19:23:14.173Z,3.10
2023-05-16T19:25:47.282Z,3.30
2023-05-16T19:28:17.831Z,3.00
2023-05-16T19:30:46.349Z,3.30
2023-05-16T19:33:15.102Z,3.10
2023-05-16T19:35:43.899Z,2.87
2023-05-16T19:38:12.420Z,3.17
2023-05-16T19:40:40.929Z,3.17
2023-05-16T19:43:09.544Z,3.10
2023-05-16T19:45:39.454Z,2.80
2023-05-16T19:48:08.630Z,3.00
2023-05-16T19:50:37.580Z,3.10
2023-05-16T19:53:06.087Z,2.63
2023-05-16T19:55:35.817Z,3.07
2023-05-16T19:58:05.346Z,2.90
2023-05-16T20:00:33.948Z,3.33
2023-05-16T20:03:04.051Z,3.47
2023-05-16T20:05:32.725Z,3.30
2023-05-16T20:08:01.246Z,3.00
2023-05-16T20:10:29.752Z,3.13
2023-05-16T20:12:58.428Z,3.20
2023-05-16T20:15:27.197Z,3.33
2023-05-16T20:17:55.841Z,3.50
2023-05-16T20:20:26.392Z,3.00
2023-05-16T20:22:54.895Z,3.30
2023-05-16T20:25:23.398Z,3.50
2023-05-16T20:27:52.004Z,3.70
2023-05-16T20:30:20.530Z,3.60
2023-05-16T20:32:49.114Z,3.60
2023-05-16T20:35:17.914Z,3.30
2023-05-16T20:37:47.801Z,3.53
2023-05-16T20:40:18.717Z,3.07
2023-05-16T20:42:47.336Z,2.80
2023-05-16T20:45:15.908Z,3.00
2023-05-16T20:47:44.479Z,2.67
2023-05-16T20:50:13.187Z,2.90
2023-05-16T20:52:41.707Z,2.33
2023-05-16T20:55:11.851Z,2.67
2023-05-16T20:57:42.396Z,2.60
2023-05-16T21:00:12.802Z,2.43
2023-05-16T21:02:41.410Z,2.63
2023-05-16T21:05:24.144Z,2.60
2023-05-16T21:07:53.889Z,2.70
2023-05-16T21:10:23.861Z,2.80
2023-05-16T21:12:52.386Z,3.00
2023-05-16T21:15:23.344Z,3.00
2023-05-16T21:17:52.374Z,2.80
2023-05-16T21:20:21.135Z,2.77
2023-05-16T21:22:49.833Z,2.97
2023-05-16T21:25:18.508Z,3.10
2023-05-16T21:27:48.445Z,2.97
2023-05-16T21:30:17.103Z,3.07
2023-05-16T21:32:45.988Z,2.80
2023-05-16T21:35:14.530Z,3.37
2023-05-16T21:37:45.797Z,3.20
2023-05-16T21:40:19.022Z,3.50
2023-05-16T21:42:48.946Z,3.23
2023-05-16T21:45:17.705Z,3.23
2023-05-16T21:47:46.434Z,2.30
2023-05-16T21:50:15.052Z,2.40
2023-05-16T21:52:43.678Z,2.00
2023-05-16T21:55:12.428Z,2.37
2023-05-16T21:57:41.049Z,2.30
2023-05-16T22:00:11.767Z,2.57
2023-05-16T22:02:40.399Z,2.13
2023-05-16T22:05:09.807Z,2.07
2023-05-16T22:07:38.562Z,2.43
2023-05-16T22:10:07.668Z,2.53
2023-05-16T22:12:36.163Z,2.80
2023-05-16T22:15:05.071Z,2.83
2023-05-16T22:17:34.949Z,2.90
2023-05-16T22:20:03.466Z,3.30
2023-05-16T22:22:32.083Z,3.17
2023-05-16T22:25:00.788Z,3.17
2023-05-16T22:27:29.201Z,3.07
2023-05-16T22:30:00.007Z,2.90
2023-05-16T22:32:28.698Z,3.07
2023-05-16T22:34:58.601Z,3.30
2023-05-16T22:37:27.911Z,3.90
2023-05-16T22:39:57.030Z,3.77
2023-05-16T22:42:25.945Z,3.70
2023-05-16T22:44:54.501Z,3.90
2023-05-16T22:47:22.932Z,3.60
2023-05-16T22:49:51.345Z,3.50
2023-05-16T22:52:22.158Z,3.80
2023-05-16T22:54:50.695Z,3.80
2023-05-16T22:57:19.118Z,3.30
2023-05-16T22:59:47.724Z,3.00
2023-05-16T23:02:16.154Z,3.30
2023-05-16T23:04:44.614Z,3.63
2023-05-16T23:07:13.187Z,3.27
2023-05-16T23:09:42.975Z,3.30
2023-05-16T23:12:11.537Z,2.40
2023-05-16T23:14:40.055Z,2.90
2023-05-16T23:17:08.491Z,2.60
2023-05-16T23:19:37.051Z,2.10
2023-05-16T23:22:06.191Z,1.93
2023-05-16T23:24:34.800Z,1.73
2023-05-16T23:27:04.739Z,1.33
2023-05-16T23:29:33.160Z,1.13
2023-05-16T23:32:01.851Z,1.20
2023-05-16T23:34:30.287Z,1.20
2023-05-16T23:36:58.717Z,1.40
2023-05-16T23:39:27.326Z,0.80
2023-05-16T23:41:55.846Z,0.93
2023-05-16T23:44:25.806Z,1.00
2023-05-16T23:46:54.488Z,0.83
2023-05-16T23:49:22.979Z,0.80
2023-05-16T23:54:25.491Z,0.60
2023-05-16T23:56:54.043Z,0.47
2023-05-16T23:59:22.708Z,0.70
